sensor_id;sensor_type;location;lat;lon;timestamp;temperature;humidity
13970;DHT22;7057;49.984;8.404;2023-05-29T00:00:53;17.70;99.90
13970;DHT22;7057;49.984;8.404;2023-05-29T00:03:21;17.70;99.90
13970;DHT22;7057;49.984;8.404;2023-05-29T00:05:48;17.70;99.90
13970;DHT22;7057;49.984;8.404;2023-05-29T00:08:17;17.70;99.90
13970;DHT22;7057;49.984;8.404;2023-05-29T00:10:44;17.60;99.90
13970;DHT22;7057;49.984;8.404;2023-05-29T00:13:11;17.60;99.90
13970;DHT22;7057;49.984;8.404;2023-05-29T00:15:38;17.60;99.90
13970;DHT22;7057;49.984;8.404;2023-05-29T00:18:05;17.60;99.90
13970;DHT22;7057;49.984;8.404;2023-05-29T00:20:32;17.60;99.90
13970;DHT22;7057;49.984;8.404;2023-05-29T00:23:00;17.60;99.90
13970;DHT22;7057;49.984;8.404;2023-05-29T00:25:30;17.60;99.90
13970;DHT22;7057;49.984;8.404;2023-05-29T00:27:57;17.50;99.90
13970;DHT22;7057;49.984;8.404;2023-05-29T00:30:24;17.50;99.90
13970;DHT22;7057;49.984;8.404;2023-05-29T00:32:51;17.40;99.90
13970;DHT22;7057;49.984;8.404;2023-05-29T00:35:19;17.40;99.90
13970;DHT22;7057;49.984;8.404;2023-05-29T00:37:47;17.30;99.90
13970;DHT22;7057;49.984;8.404;2023-05-29T00:40:14;17.30;99.90
13970;DHT22;7057;49.984;8.404;2023-05-29T00:42:43;17.30;99.90
13970;DHT22;7057;49.984;8.404;2023-05-29T00:45:10;17.20;99.90
13970;DHT22;7057;49.984;8.404;2023-05-29T00:47:39;17.20;99.90
13970;DHT22;7057;49.984;8.404;2023-05-29T00:50:08;17.10;99.90
13970;DHT22;7057;49.984;8.404;2023-05-29T00:52:40;17.10;99.90
13970;DHT22;7057;49.984;8.404;2023-05-29T00:55:08;17.10;99.90
13970;DHT22;7057;49.984;8.404;2023-05-29T00:57:36;17.00;99.90
13970;DHT22;7057;49.984;8.404;2023-05-29T01:00:07;17.00;99.90
13970;DHT22;7057;49.984;8.404;2023-05-29T01:02:39;16.90;99.90
13970;DHT22;7057;49.984;8.404;2023-05-29T01:05:10;16.80;99.90
13970;DHT22;7057;49.984;8.404;2023-05-29T01:07:37;16.80;99.90
13970;DHT22;7057;49.984;8.404;2023-05-29T01:10:05;16.70;99.90
13970;DHT22;7057;49.984;8.404;2023-05-29T01:12:38;16.60;99.90
13970;DHT22;7057;49.984;8.404;2023-05-29T01:15:21;16.60;99.90
13970;DHT22;7057;49.984;8.404;2023-05-29T01:20:52;16.40;99.90
13970;DHT22;7057;49.984;8.404;2023-05-29T01:23:35;16.30;99.90
13970;DHT22;7057;49.984;8.404;2023-05-29T01:26:22;16.20;99.90
13970;DHT22;7057;49.984;8.404;2023-05-29T01:28:55;16.10;99.90
13970;DHT22;7057;49.984;8.404;2023-05-29T01:31:26;16.10;99.90
13970;DHT22;7057;49.984;8.404;2023-05-29T01:33:53;16.00;99.90
13970;DHT22;7057;49.984;8.404;2023-05-29T01:36:21;15.90;99.90
13970;DHT22;7057;49.984;8.404;2023-05-29T01:38:48;15.90;99.90
13970;DHT22;7057;49.984;8.404;2023-05-29T01:41:16;15.90;99.90
13970;DHT22;7057;49.984;8.404;2023-05-29T01:43:45;15.80;99.90
13970;DHT22;7057;49.984;8.404;2023-05-29T01:46:14;15.80;99.90
13970;DHT22;7057;49.984;8.404;2023-05-29T01:48:43;15.80;99.90
13970;DHT22;7057;49.984;8.404;2023-05-29T01:51:11;15.80;99.90
13970;DHT22;7057;49.984;8.404;2023-05-29T01:53:39;15.80;99.90
13970;DHT22;7057;49.984;8.404;2023-05-29T01:56:06;15.80;99.90
13970;DHT22;7057;49.984;8.404;2023-05-29T01:58:36;15.80;99.90
13970;DHT22;7057;49.984;8.404;2023-05-29T02:01:05;15.70;99.90
13970;DHT22;7057;49.984;8.404;2023-05-29T02:03:34;15.70;99.90
13970;DHT22;7057;49.984;8.404;2023-05-29T02:06:01;15.70;99.90
13970;DHT22;7057;49.984;8.404;2023-05-29T02:08:28;15.70;99.90
13970;DHT22;7057;49.984;8.404;2023-05-29T02:10:56;15.60;99.90
13970;DHT22;7057;49.984;8.404;2023-05-29T02:13:23;15.50;99.90
13970;DHT22;7057;49.984;8.404;2023-05-29T02:15:50;15.50;99.90
13970;DHT22;7057;49.984;8.404;2023-05-29T02:18:17;15.40;99.90
13970;DHT22;7057;49.984;8.404;2023-05-29T02:20:46;15.30;99.90
13970;DHT22;7057;49.984;8.404;2023-05-29T02:23:13;15.20;99.90
13970;DHT22;7057;49.984;8.404;2023-05-29T02:25:41;15.20;99.90
13970;DHT22;7057;49.984;8.404;2023-05-29T02:28:08;15.20;99.90
13970;DHT22;7057;49.984;8.404;2023-05-29T02:30:35;15.10;99.90
13970;DHT22;7057;49.984;8.404;2023-05-29T02:33:03;15.10;99.90
13970;DHT22;7057;49.984;8.404;2023-05-29T02:35:32;15.00;99.90
13970;DHT22;7057;49.984;8.404;2023-05-29T02:38:00;15.00;99.90
13970;DHT22;7057;49.984;8.404;2023-05-29T02:40:27;14.90;99.90
13970;DHT22;7057;49.984;8.404;2023-05-29T02:42:55;14.90;99.90
13970;DHT22;7057;49.984;8.404;2023-05-29T02:45:22;14.90;99.90
13970;DHT22;7057;49.984;8.404;2023-05-29T02:47:49;14.90;99.90
13970;DHT22;7057;49.984;8.404;2023-05-29T02:50:16;14.80;99.90
13970;DHT22;7057;49.984;8.404;2023-05-29T02:52:43;14.70;99.90
13970;DHT22;7057;49.984;8.404;2023-05-29T02:55:12;14.70;99.90
13970;DHT22;7057;49.984;8.404;2023-05-29T02:57:39;14.60;99.90
13970;DHT22;7057;49.984;8.404;2023-05-29T03:00:07;14.60;99.90
13970;DHT22;7057;49.984;8.404;2023-05-29T03:02:35;14.60;99.90
13970;DHT22;7057;49.984;8.404;2023-05-29T03:05:03;14.60;99.90
13970;DHT22;7057;49.984;8.404;2023-05-29T03:07:30;14.60;99.90
13970;DHT22;7057;49.984;8.404;2023-05-29T03:09:57;14.60;99.90
13970;DHT22;7057;49.984;8.404;2023-05-29T03:12:25;14.60;99.90
13970;DHT22;7057;49.984;8.404;2023-05-29T03:14:53;14.60;99.90
13970;DHT22;7057;49.984;8.404;2023-05-29T03:17:22;14.60;99.90
13970;DHT22;7057;49.984;8.404;2023-05-29T03:19:49;14.50;99.90
13970;DHT22;7057;49.984;8.404;2023-05-29T03:22:16;14.50;99.90
13970;DHT22;7057;49.984;8.404;2023-05-29T03:24:44;14.40;99.90
13970;DHT22;7057;49.984;8.404;2023-05-29T03:27:11;14.40;99.90
13970;DHT22;7057;49.984;8.404;2023-05-29T03:29:39;14.40;99.90
13970;DHT22;7057;49.984;8.404;2023-05-29T03:32:06;14.30;99.90
13970;DHT22;7057;49.984;8.404;2023-05-29T03:34:34;14.30;99.90
13970;DHT22;7057;49.984;8.404;2023-05-29T03:37:01;14.30;99.90
13970;DHT22;7057;49.984;8.404;2023-05-29T03:39:29;14.30;99.90
13970;DHT22;7057;49.984;8.404;2023-05-29T03:41:56;14.30;99.90
13970;DHT22;7057;49.984;8.404;2023-05-29T03:44:23;14.30;99.90
13970;DHT22;7057;49.984;8.404;2023-05-29T03:46:51;14.30;99.90
13970;DHT22;7057;49.984;8.404;2023-05-29T03:49:19;14.30;99.90
13970;DHT22;7057;49.984;8.404;2023-05-29T03:51:46;14.40;99.90
13970;DHT22;7057;49.984;8.404;2023-05-29T03:54:13;14.30;99.90
13970;DHT22;7057;49.984;8.404;2023-05-29T03:56:40;14.40;99.90
13970;DHT22;7057;49.984;8.404;2023-05-29T03:59:07;14.40;99.90
13970;DHT22;7057;49.984;8.404;2023-05-29T04:01:35;14.40;99.90
13970;DHT22;7057;49.984;8.404;2023-05-29T04:04:03;14.50;99.90
13970;DHT22;7057;49.984;8.404;2023-05-29T04:06:30;14.50;99.90
13970;DHT22;7057;49.984;8.404;2023-05-29T04:08:58;14.50;99.90
13970;DHT22;7057;49.984;8.404;2023-05-29T04:11:25;14.50;99.90
13970;DHT22;7057;49.984;8.404;2023-05-29T04:13:52;14.50;99.90
13970;DHT22;7057;49.984;8.404;2023-05-29T04:16:19;14.50;99.90
13970;DHT22;7057;49.984;8.404;2023-05-29T04:18:46;14.60;99.90
13970;DHT22;7057;49.984;8.404;2023-05-29T04:21:15;14.60;99.90
13970;DHT22;7057;49.984;8.404;2023-05-29T04:23:42;14.70;99.90
13970;DHT22;7057;49.984;8.404;2023-05-29T04:26:09;14.80;99.90
13970;DHT22;7057;49.984;8.404;2023-05-29T04:28:36;14.80;99.90
13970;DHT22;7057;49.984;8.404;2023-05-29T04:31:04;15.00;99.90
13970;DHT22;7057;49.984;8.404;2023-05-29T04:33:31;15.10;99.90
13970;DHT22;7057;49.984;8.404;2023-05-29T04:36:02;15.20;99.90
13970;DHT22;7057;49.984;8.404;2023-05-29T04:38:32;15.30;99.90
13970;DHT22;7057;49.984;8.404;2023-05-29T04:40:59;15.40;99.90
13970;DHT22;7057;49.984;8.404;2023-05-29T04:43:26;15.60;99.90
13970;DHT22;7057;49.984;8.404;2023-05-29T04:45:53;15.80;99.90
13970;DHT22;7057;49.984;8.404;2023-05-29T04:48:21;15.90;99.90
13970;DHT22;7057;49.984;8.404;2023-05-29T04:50:48;16.00;99.90
13970;DHT22;7057;49.984;8.404;2023-05-29T04:53:15;16.10;99.90
13970;DHT22;7057;49.984;8.404;2023-05-29T04:55:43;16.30;99.90
13970;DHT22;7057;49.984;8.404;2023-05-29T04:58:11;16.30;99.90
13970;DHT22;7057;49.984;8.404;2023-05-29T05:00:38;16.40;99.90
13970;DHT22;7057;49.984;8.404;2023-05-29T05:03:06;16.50;99.90
13970;DHT22;7057;49.984;8.404;2023-05-29T05:05:33;16.50;99.90
13970;DHT22;7057;49.984;8.404;2023-05-29T05:08:00;16.60;99.90
13970;DHT22;7057;49.984;8.404;2023-05-29T05:10:27;16.70;99.90
13970;DHT22;7057;49.984;8.404;2023-05-29T05:12:56;16.80;99.90
13970;DHT22;7057;49.984;8.404;2023-05-29T05:15:23;16.90;99.90
13970;DHT22;7057;49.984;8.404;2023-05-29T05:17:50;17.00;99.90
13970;DHT22;7057;49.984;8.404;2023-05-29T05:20:17;17.10;99.90
13970;DHT22;7057;49.984;8.404;2023-05-29T05:22:45;17.20;99.90
13970;DHT22;7057;49.984;8.404;2023-05-29T05:25:12;17.20;99.90
13970;DHT22;7057;49.984;8.404;2023-05-29T05:27:40;17.30;99.90
13970;DHT22;7057;49.984;8.404;2023-05-29T05:30:09;17.30;99.90
13970;DHT22;7057;49.984;8.404;2023-05-29T05:32:36;17.30;99.90
13970;DHT22;7057;49.984;8.404;2023-05-29T05:35:04;17.40;99.90
13970;DHT22;7057;49.984;8.404;2023-05-29T05:37:31;17.50;99.90
13970;DHT22;7057;49.984;8.404;2023-05-29T05:39:58;17.50;99.90
13970;DHT22;7057;49.984;8.404;2023-05-29T05:42:26;17.60;99.90
13970;DHT22;7057;49.984;8.404;2023-05-29T05:44:53;17.60;99.90
13970;DHT22;7057;49.984;8.404;2023-05-29T05:47:21;17.70;99.90
13970;DHT22;7057;49.984;8.404;2023-05-29T05:49:49;17.80;99.90
13970;DHT22;7057;49.984;8.404;2023-05-29T05:52:17;17.90;99.90
13970;DHT22;7057;49.984;8.404;2023-05-29T05:54:44;18.00;99.90
13970;DHT22;7057;49.984;8.404;2023-05-29T05:57:11;18.00;99.90
13970;DHT22;7057;49.984;8.404;2023-05-29T05:59:38;18.10;99.90
13970;DHT22;7057;49.984;8.404;2023-05-29T06:02:06;18.10;99.90
13970;DHT22;7057;49.984;8.404;2023-05-29T06:04:35;18.20;99.90
13970;DHT22;7057;49.984;8.404;2023-05-29T06:07:02;18.30;99.90
13970;DHT22;7057;49.984;8.404;2023-05-29T06:09:29;18.40;99.90
13970;DHT22;7057;49.984;8.404;2023-05-29T06:11:56;18.40;99.90
13970;DHT22;7057;49.984;8.404;2023-05-29T06:14:24;18.50;99.90
13970;DHT22;7057;49.984;8.404;2023-05-29T06:16:52;18.60;99.90
13970;DHT22;7057;49.984;8.404;2023-05-29T06:19:19;18.60;99.90
13970;DHT22;7057;49.984;8.404;2023-05-29T06:21:48;18.60;99.90
13970;DHT22;7057;49.984;8.404;2023-05-29T06:24:15;18.70;99.90
13970;DHT22;7057;49.984;8.404;2023-05-29T06:26:42;18.70;99.90
13970;DHT22;7057;49.984;8.404;2023-05-29T06:29:09;18.70;99.90
13970;DHT22;7057;49.984;8.404;2023-05-29T06:31:36;18.70;99.90
13970;DHT22;7057;49.984;8.404;2023-05-29T06:34:04;18.70;99.90
13970;DHT22;7057;49.984;8.404;2023-05-29T06:36:31;18.70;99.90
13970;DHT22;7057;49.984;8.404;2023-05-29T06:39:00;18.50;99.90
13970;DHT22;7057;49.984;8.404;2023-05-29T06:41:27;18.60;99.90
13970;DHT22;7057;49.984;8.404;2023-05-29T06:43:54;18.60;99.90
13970;DHT22;7057;49.984;8.404;2023-05-29T06:46:21;18.70;99.90
13970;DHT22;7057;49.984;8.404;2023-05-29T06:48:48;18.80;99.90
13970;DHT22;7057;49.984;8.404;2023-05-29T06:51:17;18.90;99.90
13970;DHT22;7057;49.984;8.404;2023-05-29T06:53:44;19.10;99.90
13970;DHT22;7057;49.984;8.404;2023-05-29T06:56:13;19.20;99.90
13970;DHT22;7057;49.984;8.404;2023-05-29T06:58:40;19.20;99.90
13970;DHT22;7057;49.984;8.404;2023-05-29T07:01:07;19.30;99.90
13970;DHT22;7057;49.984;8.404;2023-05-29T07:03:35;19.40;99.90
13970;DHT22;7057;49.984;8.404;2023-05-29T07:06:02;19.50;99.90
13970;DHT22;7057;49.984;8.404;2023-05-29T07:08:29;19.60;99.90
13970;DHT22;7057;49.984;8.404;2023-05-29T07:10:57;19.60;99.90
13970;DHT22;7057;49.984;8.404;2023-05-29T07:13:25;19.70;99.90
13970;DHT22;7057;49.984;8.404;2023-05-29T07:15:53;19.80;99.90
13970;DHT22;7057;49.984;8.404;2023-05-29T07:18:20;19.90;99.90
13970;DHT22;7057;49.984;8.404;2023-05-29T07:20:47;19.90;99.90
13970;DHT22;7057;49.984;8.404;2023-05-29T07:23:14;20.00;99.90
13970;DHT22;7057;49.984;8.404;2023-05-29T07:25:41;20.00;99.90
13970;DHT22;7057;49.984;8.404;2023-05-29T07:28:08;20.10;99.90
13970;DHT22;7057;49.984;8.404;2023-05-29T07:30:37;20.20;99.90
13970;DHT22;7057;49.984;8.404;2023-05-29T07:33:04;20.30;99.90
13970;DHT22;7057;49.984;8.404;2023-05-29T07:35:32;20.40;99.90
13970;DHT22;7057;49.984;8.404;2023-05-29T07:38:00;20.50;99.90
13970;DHT22;7057;49.984;8.404;2023-05-29T07:40:27;20.60;99.90
13970;DHT22;7057;49.984;8.404;2023-05-29T07:42:54;20.70;99.90
13970;DHT22;7057;49.984;8.404;2023-05-29T07:45:21;20.80;99.90
13970;DHT22;7057;49.984;8.404;2023-05-29T07:47:50;20.70;99.90
13970;DHT22;7057;49.984;8.404;2023-05-29T07:50:17;20.70;99.90
13970;DHT22;7057;49.984;8.404;2023-05-29T07:52:45;20.80;99.90
13970;DHT22;7057;49.984;8.404;2023-05-29T07:55:12;20.90;99.90
13970;DHT22;7057;49.984;8.404;2023-05-29T07:57:40;21.00;99.90
13970;DHT22;7057;49.984;8.404;2023-05-29T08:00:08;21.10;99.90
13970;DHT22;7057;49.984;8.404;2023-05-29T08:02:39;21.20;99.90
13970;DHT22;7057;49.984;8.404;2023-05-29T08:05:08;21.30;99.90
13970;DHT22;7057;49.984;8.404;2023-05-29T08:07:36;21.50;99.90
13970;DHT22;7057;49.984;8.404;2023-05-29T08:10:03;21.50;99.90
13970;DHT22;7057;49.984;8.404;2023-05-29T08:12:32;21.50;99.90
13970;DHT22;7057;49.984;8.404;2023-05-29T08:15:01;21.50;99.90
13970;DHT22;7057;49.984;8.404;2023-05-29T08:17:28;21.70;99.90
13970;DHT22;7057;49.984;8.404;2023-05-29T08:19:55;21.80;99.90
13970;DHT22;7057;49.984;8.404;2023-05-29T08:22:28;21.90;99.90
13970;DHT22;7057;49.984;8.404;2023-05-29T08:24:55;21.90;99.90
13970;DHT22;7057;49.984;8.404;2023-05-29T08:27:22;22.00;99.90
13970;DHT22;7057;49.984;8.404;2023-05-29T08:29:49;22.00;99.90
13970;DHT22;7057;49.984;8.404;2023-05-29T08:32:17;22.10;99.90
13970;DHT22;7057;49.984;8.404;2023-05-29T08:34:44;22.30;99.90
13970;DHT22;7057;49.984;8.404;2023-05-29T08:37:12;22.40;99.90
13970;DHT22;7057;49.984;8.404;2023-05-29T08:39:40;22.50;99.90
13970;DHT22;7057;49.984;8.404;2023-05-29T08:42:13;22.50;99.90
13970;DHT22;7057;49.984;8.404;2023-05-29T08:44:43;22.60;99.90
13970;DHT22;7057;49.984;8.404;2023-05-29T08:47:15;22.60;99.90
13970;DHT22;7057;49.984;8.404;2023-05-29T08:49:52;22.70;99.90
13970;DHT22;7057;49.984;8.404;2023-05-29T08:52:22;22.70;99.90
13970;DHT22;7057;49.984;8.404;2023-05-29T08:54:51;22.80;99.90
13970;DHT22;7057;49.984;8.404;2023-05-29T08:57:20;22.90;99.90
13970;DHT22;7057;49.984;8.404;2023-05-29T08:59:51;23.10;99.90
13970;DHT22;7057;49.984;8.404;2023-05-29T09:02:18;23.20;99.90
13970;DHT22;7057;49.984;8.404;2023-05-29T09:04:45;23.30;99.90
13970;DHT22;7057;49.984;8.404;2023-05-29T09:07:14;23.30;99.90
13970;DHT22;7057;49.984;8.404;2023-05-29T09:09:42;23.20;99.90
13970;DHT22;7057;49.984;8.404;2023-05-29T09:12:10;23.30;99.90
13970;DHT22;7057;49.984;8.404;2023-05-29T09:14:40;23.30;99.90
13970;DHT22;7057;49.984;8.404;2023-05-29T09:17:09;23.40;99.90
13970;DHT22;7057;49.984;8.404;2023-05-29T09:19:37;23.40;99.90
13970;DHT22;7057;49.984;8.404;2023-05-29T09:22:07;23.50;99.90
13970;DHT22;7057;49.984;8.404;2023-05-29T09:24:36;23.50;99.90
13970;DHT22;7057;49.984;8.404;2023-05-29T09:27:05;23.70;99.90
13970;DHT22;7057;49.984;8.404;2023-05-29T09:29:37;23.80;99.90
13970;DHT22;7057;49.984;8.404;2023-05-29T09:32:07;23.80;99.90
13970;DHT22;7057;49.984;8.404;2023-05-29T09:34:35;23.90;99.90
13970;DHT22;7057;49.984;8.404;2023-05-29T09:37:04;24.10;99.90
13970;DHT22;7057;49.984;8.404;2023-05-29T09:39:44;24.10;99.90
13970;DHT22;7057;49.984;8.404;2023-05-29T09:42:12;24.30;99.90
13970;DHT22;7057;49.984;8.404;2023-05-29T09:44:41;24.50;99.90
13970;DHT22;7057;49.984;8.404;2023-05-29T09:47:09;24.70;99.90
13970;DHT22;7057;49.984;8.404;2023-05-29T09:49:40;24.70;99.90
13970;DHT22;7057;49.984;8.404;2023-05-29T09:52:08;24.80;99.90
13970;DHT22;7057;49.984;8.404;2023-05-29T09:54:35;24.90;99.90
13970;DHT22;7057;49.984;8.404;2023-05-29T09:57:03;24.90;99.90
13970;DHT22;7057;49.984;8.404;2023-05-29T09:59:33;24.90;99.90
13970;DHT22;7057;49.984;8.404;2023-05-29T10:02:03;25.00;99.90
13970;DHT22;7057;49.984;8.404;2023-05-29T10:04:33;25.20;99.90
13970;DHT22;7057;49.984;8.404;2023-05-29T10:07:05;25.10;99.90
13970;DHT22;7057;49.984;8.404;2023-05-29T10:09:33;25.00;99.90
13970;DHT22;7057;49.984;8.404;2023-05-29T10:12:03;25.10;99.90
13970;DHT22;7057;49.984;8.404;2023-05-29T10:14:34;25.10;99.90
13970;DHT22;7057;49.984;8.404;2023-05-29T10:17:07;25.30;99.90
13970;DHT22;7057;49.984;8.404;2023-05-29T10:19:36;25.30;99.90
13970;DHT22;7057;49.984;8.404;2023-05-29T10:22:04;25.40;99.90
13970;DHT22;7057;49.984;8.404;2023-05-29T10:24:33;25.50;99.90
13970;DHT22;7057;49.984;8.404;2023-05-29T10:27:04;25.60;99.90
13970;DHT22;7057;49.984;8.404;2023-05-29T10:29:37;25.60;99.90
13970;DHT22;7057;49.984;8.404;2023-05-29T10:32:18;25.60;99.90
13970;DHT22;7057;49.984;8.404;2023-05-29T10:34:51;25.60;99.90
13970;DHT22;7057;49.984;8.404;2023-05-29T10:37:32;25.60;99.90
13970;DHT22;7057;49.984;8.404;2023-05-29T10:40:04;25.60;99.90
13970;DHT22;7057;49.984;8.404;2023-05-29T10:42:44;25.60;99.90
13970;DHT22;7057;49.984;8.404;2023-05-29T10:45:47;25.80;99.90
13970;DHT22;7057;49.984;8.404;2023-05-29T10:48:38;25.90;99.60
13970;DHT22;7057;49.984;8.404;2023-05-29T10:51:07;26.00;98.90
13970;DHT22;7057;49.984;8.404;2023-05-29T10:53:35;26.00;97.40
13970;DHT22;7057;49.984;8.404;2023-05-29T10:56:14;26.00;97.60
13970;DHT22;7057;49.984;8.404;2023-05-29T10:58:42;25.90;97.70
13970;DHT22;7057;49.984;8.404;2023-05-29T11:01:09;25.90;98.60
13970;DHT22;7057;49.984;8.404;2023-05-29T11:03:38;26.00;98.30
13970;DHT22;7057;49.984;8.404;2023-05-29T11:06:07;26.10;96.60
13970;DHT22;7057;49.984;8.404;2023-05-29T11:08:46;26.20;96.50
13970;DHT22;7057;49.984;8.404;2023-05-29T11:11:14;26.20;95.90
13970;DHT22;7057;49.984;8.404;2023-05-29T11:13:52;26.20;95.60
13970;DHT22;7057;49.984;8.404;2023-05-29T11:16:34;26.30;95.30
13970;DHT22;7057;49.984;8.404;2023-05-29T11:19:06;26.30;95.70
13970;DHT22;7057;49.984;8.404;2023-05-29T11:21:56;26.40;95.70
13970;DHT22;7057;49.984;8.404;2023-05-29T11:24:25;26.50;94.40
13970;DHT22;7057;49.984;8.404;2023-05-29T11:26:54;26.50;93.50
13970;DHT22;7057;49.984;8.404;2023-05-29T11:29:22;26.60;92.70
13970;DHT22;7057;49.984;8.404;2023-05-29T11:31:57;26.60;90.90
13970;DHT22;7057;49.984;8.404;2023-05-29T11:34:28;26.50;92.60
13970;DHT22;7057;49.984;8.404;2023-05-29T11:36:56;26.60;93.40
13970;DHT22;7057;49.984;8.404;2023-05-29T11:39:24;26.70;93.70
13970;DHT22;7057;49.984;8.404;2023-05-29T11:41:51;26.70;92.40
13970;DHT22;7057;49.984;8.404;2023-05-29T11:44:19;26.60;92.80
13970;DHT22;7057;49.984;8.404;2023-05-29T11:46:46;26.60;92.10
13970;DHT22;7057;49.984;8.404;2023-05-29T11:49:27;26.70;92.90
13970;DHT22;7057;49.984;8.404;2023-05-29T11:52:05;26.70;93.20
13970;DHT22;7057;49.984;8.404;2023-05-29T11:54:33;26.80;93.40
13970;DHT22;7057;49.984;8.404;2023-05-29T11:57:02;26.90;93.50
13970;DHT22;7057;49.984;8.404;2023-05-29T11:59:32;27.00;93.70
13970;DHT22;7057;49.984;8.404;2023-05-29T12:02:02;27.20;93.80
13970;DHT22;7057;49.984;8.404;2023-05-29T12:04:29;27.10;93.10
13970;DHT22;7057;49.984;8.404;2023-05-29T12:06:58;27.20;93.40
13970;DHT22;7057;49.984;8.404;2023-05-29T12:09:28;27.10;93.20
13970;DHT22;7057;49.984;8.404;2023-05-29T12:12:01;27.10;93.30
13970;DHT22;7057;49.984;8.404;2023-05-29T12:14:28;27.10;93.80
13970;DHT22;7057;49.984;8.404;2023-05-29T12:16:56;27.10;94.40
13970;DHT22;7057;49.984;8.404;2023-05-29T12:19:23;27.00;94.10
13970;DHT22;7057;49.984;8.404;2023-05-29T12:21:51;27.10;94.60
13970;DHT22;7057;49.984;8.404;2023-05-29T12:24:20;27.20;94.70
13970;DHT22;7057;49.984;8.404;2023-05-29T12:26:47;27.30;95.00
13970;DHT22;7057;49.984;8.404;2023-05-29T12:29:15;27.30;94.70
13970;DHT22;7057;49.984;8.404;2023-05-29T12:31:42;27.40;94.10
13970;DHT22;7057;49.984;8.404;2023-05-29T12:34:11;27.40;94.30
13970;DHT22;7057;49.984;8.404;2023-05-29T12:36:40;27.40;94.10
13970;DHT22;7057;49.984;8.404;2023-05-29T12:39:07;27.20;93.80
13970;DHT22;7057;49.984;8.404;2023-05-29T12:41:38;27.30;93.70
13970;DHT22;7057;49.984;8.404;2023-05-29T12:44:06;27.30;93.80
13970;DHT22;7057;49.984;8.404;2023-05-29T12:46:38;27.40;94.00
13970;DHT22;7057;49.984;8.404;2023-05-29T12:49:12;27.50;94.00
13970;DHT22;7057;49.984;8.404;2023-05-29T12:51:41;27.60;93.90
13970;DHT22;7057;49.984;8.404;2023-05-29T12:54:09;27.60;94.20
13970;DHT22;7057;49.984;8.404;2023-05-29T12:56:38;27.70;93.30
13970;DHT22;7057;49.984;8.404;2023-05-29T12:59:06;27.70;93.60
13970;DHT22;7057;49.984;8.404;2023-05-29T13:01:34;28.00;93.20
13970;DHT22;7057;49.984;8.404;2023-05-29T13:04:01;28.10;93.20
13970;DHT22;7057;49.984;8.404;2023-05-29T13:06:29;28.20;92.60
13970;DHT22;7057;49.984;8.404;2023-05-29T13:08:56;28.30;91.90
13970;DHT22;7057;49.984;8.404;2023-05-29T13:11:23;28.20;92.50
13970;DHT22;7057;49.984;8.404;2023-05-29T13:13:52;28.10;91.40
13970;DHT22;7057;49.984;8.404;2023-05-29T13:16:20;28.10;91.40
13970;DHT22;7057;49.984;8.404;2023-05-29T13:18:47;28.10;91.90
13970;DHT22;7057;49.984;8.404;2023-05-29T13:21:14;28.10;91.70
13970;DHT22;7057;49.984;8.404;2023-05-29T13:23:42;28.10;92.10
13970;DHT22;7057;49.984;8.404;2023-05-29T13:26:09;28.20;91.90
13970;DHT22;7057;49.984;8.404;2023-05-29T13:28:36;28.20;91.80
13970;DHT22;7057;49.984;8.404;2023-05-29T13:31:05;28.20;91.90
13970;DHT22;7057;49.984;8.404;2023-05-29T13:33:32;28.10;91.30
13970;DHT22;7057;49.984;8.404;2023-05-29T13:35:59;28.20;90.50
13970;DHT22;7057;49.984;8.404;2023-05-29T13:38:26;28.10;90.90
13970;DHT22;7057;49.984;8.404;2023-05-29T13:40:53;28.10;91.50
13970;DHT22;7057;49.984;8.404;2023-05-29T13:43:21;27.90;91.50
13970;DHT22;7057;49.984;8.404;2023-05-29T13:45:48;28.00;91.80
13970;DHT22;7057;49.984;8.404;2023-05-29T13:48:16;28.00;92.40
13970;DHT22;7057;49.984;8.404;2023-05-29T13:50:44;28.00;92.30
13970;DHT22;7057;49.984;8.404;2023-05-29T13:53:11;28.00;92.60
13970;DHT22;7057;49.984;8.404;2023-05-29T13:55:38;28.20;92.40
13970;DHT22;7057;49.984;8.404;2023-05-29T13:58:05;28.20;92.00
13970;DHT22;7057;49.984;8.404;2023-05-29T14:00:32;28.10;92.10
13970;DHT22;7057;49.984;8.404;2023-05-29T14:02:59;28.10;91.00
13970;DHT22;7057;49.984;8.404;2023-05-29T14:05:28;28.10;91.30
13970;DHT22;7057;49.984;8.404;2023-05-29T14:07:55;28.00;91.90
13970;DHT22;7057;49.984;8.404;2023-05-29T14:10:22;27.70;91.90
13970;DHT22;7057;49.984;8.404;2023-05-29T14:12:49;27.40;91.90
13970;DHT22;7057;49.984;8.404;2023-05-29T14:15:16;27.40;92.70
13970;DHT22;7057;49.984;8.404;2023-05-29T14:17:44;27.50;92.20
13970;DHT22;7057;49.984;8.404;2023-05-29T14:20:11;27.70;92.20
13970;DHT22;7057;49.984;8.404;2023-05-29T14:22:39;27.90;92.20
13970;DHT22;7057;49.984;8.404;2023-05-29T14:25:07;27.90;92.10
13970;DHT22;7057;49.984;8.404;2023-05-29T14:27:34;27.90;92.50
13970;DHT22;7057;49.984;8.404;2023-05-29T14:30:02;28.00;92.30
13970;DHT22;7057;49.984;8.404;2023-05-29T14:32:29;28.20;92.60
13970;DHT22;7057;49.984;8.404;2023-05-29T14:34:56;28.30;92.20
13970;DHT22;7057;49.984;8.404;2023-05-29T14:37:24;28.30;91.90
13970;DHT22;7057;49.984;8.404;2023-05-29T14:39:52;28.40;92.20
13970;DHT22;7057;49.984;8.404;2023-05-29T14:42:19;28.60;91.70
13970;DHT22;7057;49.984;8.404;2023-05-29T14:44:47;28.50;91.20
13970;DHT22;7057;49.984;8.404;2023-05-29T14:47:14;28.50;91.70
13970;DHT22;7057;49.984;8.404;2023-05-29T14:49:44;28.50;91.80
13970;DHT22;7057;49.984;8.404;2023-05-29T14:52:11;28.60;92.00
13970;DHT22;7057;49.984;8.404;2023-05-29T14:54:38;28.70;91.60
13970;DHT22;7057;49.984;8.404;2023-05-29T14:57:07;28.60;91.50
13970;DHT22;7057;49.984;8.404;2023-05-29T14:59:34;28.50;91.60
13970;DHT22;7057;49.984;8.404;2023-05-29T15:02:01;28.40;91.30
13970;DHT22;7057;49.984;8.404;2023-05-29T15:04:28;28.40;91.50
13970;DHT22;7057;49.984;8.404;2023-05-29T15:06:55;28.50;91.00
13970;DHT22;7057;49.984;8.404;2023-05-29T15:09:23;28.70;91.30
13970;DHT22;7057;49.984;8.404;2023-05-29T15:11:50;28.60;91.30
13970;DHT22;7057;49.984;8.404;2023-05-29T15:14:18;28.50;91.70
13970;DHT22;7057;49.984;8.404;2023-05-29T15:16:46;28.30;91.30
13970;DHT22;7057;49.984;8.404;2023-05-29T15:19:13;28.40;91.60
13970;DHT22;7057;49.984;8.404;2023-05-29T15:21:40;28.30;91.60
13970;DHT22;7057;49.984;8.404;2023-05-29T15:24:07;28.50;91.60
13970;DHT22;7057;49.984;8.404;2023-05-29T15:26:34;28.60;91.70
13970;DHT22;7057;49.984;8.404;2023-05-29T15:29:02;28.50;91.60
13970;DHT22;7057;49.984;8.404;2023-05-29T15:31:31;28.50;91.60
13970;DHT22;7057;49.984;8.404;2023-05-29T15:33:58;28.60;91.30
13970;DHT22;7057;49.984;8.404;2023-05-29T15:36:26;28.40;92.00
13970;DHT22;7057;49.984;8.404;2023-05-29T15:38:54;28.30;92.00
13970;DHT22;7057;49.984;8.404;2023-05-29T15:41:22;28.40;91.90
13970;DHT22;7057;49.984;8.404;2023-05-29T15:43:54;28.50;91.90
13970;DHT22;7057;49.984;8.404;2023-05-29T15:46:21;28.60;91.90
13970;DHT22;7057;49.984;8.404;2023-05-29T15:48:50;28.40;92.00
13970;DHT22;7057;49.984;8.404;2023-05-29T15:51:17;28.50;91.80
13970;DHT22;7057;49.984;8.404;2023-05-29T15:53:44;28.50;91.50
13970;DHT22;7057;49.984;8.404;2023-05-29T15:56:12;28.40;92.10